KHGR/HGR METAR and TAF weather

Enter ICAO airport designator
Station Type Date Time Source
KHGR METAR 2019/12/09 13:53 UTC NOAA

KHGR 091353Z 29003KT 8SM OVC060 03/01 A3005 RMK AO2 RAB11E20UPB20E22 SLP190 P0000 T00330006


Station Type Date Time Source
KHGR Decoded METAR 2019/12/09 13:53 UTC NOAA

HAGERSTOWN REGIONAL AIRPORT, MD, United States (KHGR) 39-42N 077-44W 224M
Dec 09, 2019 - 08:53 AM EST / 2019.12.09 1353 UTC
Wind: from the WNW (290 degrees) at 3 MPH (3 KT):0
Visibility: 8 mile(s):0
Sky conditions: overcast
Precipitation last hour: A trace
Temperature: 37.9 F (3.3 C)
Dew Point: 33.1 F (0.6 C)
Relative Humidity: 82%
Pressure (altimeter): 30.05 in. Hg (1017 hPa)
ob: KHGR 091353Z 29003KT 8SM OVC060 03/01 A3005 RMK AO2 RAB11E20UPB20E22 SLP190 P0000 T00330006
cycle: 14

Station Type Date Time Source
KHGR TAF UTC NOAA

Error!

Example: see airport list